Barber, CA

8:35 AM PST on December 07, 2016 (GMT -0800)
TONGAN FARMS | | Change Station
Active Advisory: Freeze Warning

Elev 180 ft 39.70 °N, 121.84 °W | Updated 1 second ago

Mostly Cloudy
Mostly Cloudy
35.4 °F
Feels Like 35 °F
N
0.7
Wind Variable Wind from North
Gusts 2.5 mph

Today
High -- | Low -- °F
--% Chance of Precip.
Yesterday
High -- | Low -- °F
Precip. -- in
Pressure 30.19 in
Visibility 40.0 miles
Clouds Mostly Cloudy 15000 ft
Windchill 35 °F
Dew Point 24 °F
Humidity 63%
Rainfall 0.00 in
Snow Depth Not available.
7:15 AM 4:42 PM
First Quarter, 54% visible
METAR KCIC 071550Z 31006KT 40SM BKN150 M01/M03 A3019
Pressure 30.19 in
Visibility 40.0 miles
Clouds Mostly Cloudy 15000 ft
Windchill 35 °F
Dew Point 24 °F
Humidity 63%
Rainfall 0.00 in
Snow Depth Not available.
7:15 AM 4:42 PM
First Quarter, 54% visible
METAR KCIC 071550Z 31006KT 40SM BKN150 M01/M03 A3019

10-Day Weather Forecast

Almanac

Astronomy

Dec. 07, 2016 Rise Set
Actual Time
Civil Twilight
Nautical Twilight
Astronomical Twilight
Moon
Length of Visible Light
Length of Day
Tomorrow will be .
, % of the Moon is Illuminated

Today's Extremes

State Highs State Lows

Community

WunderPhotos

Upload Photos

1,956,132 photos uploaded!

WunderBlog® & News

Nearby

Air Quality

  Air Quality AQ Index Pollutant
Not available.

Snow Depth

Station Depth Elevation

Earthquake Activity

City Distance Mag. Time & Date
Minimum magnitude displayed is 2.5.

Coastal Water Temperatures

Place Temperature

Stations

Nearby Weather Stations

Station Location Temp. Windchill Dew Point Humidity Wind Precip. Elev Updated Type
                   

Watches & Warnings

Freeze Warning
Issued: 3:30 AM PST Dec. 7, 2016 – National Weather Service

... Freeze warning remains in effect until 9 am PST this morning...

* temperature... 28 to 32 degrees possible early this morning.

* Impacts... temperatures this cold may damage plants and pipes
if left unprotected.

Precautionary/preparedness actions...

A freeze warning means sub-freezing temperatures are imminent or
highly likely. These conditions will kill crops and other
sensitive vegetation. Take precautions to protect exposed pipes,
pets, and livestock.


Interact with US via social media
www.Facebook.Com/NWS.Sacramento
www.Twitter.Com/nwssacramento